Time;durP1;ratioP1;P1;durP2;ratioP2;P2;SDS_P1;SDS_P2;PMS_P1;PMS_P2;Temp;Humidity;BMP_temperature;BMP_pressure;BME280_temperature;BME280_humidity;BME280_pressure;Samples;Min_cycle;Max_cycle;Signal;HPM_P1;HPM_P2
2021/01/14 00:07:10;;;;;;;3.05;1.00;;;6.30;99.90;;;;;;5067014;28;20202;-87
2021/01/14 00:09:37;;;;;;;2.70;0.98;;;6.40;99.90;;;;;;5072943;28;20226;-87
2021/01/14 00:12:04;;;;;;;2.35;0.85;;;6.30;99.90;;;;;;5078570;28;20213;-90
2021/01/14 00:14:31;;;;;;;2.45;0.93;;;6.20;99.90;;;;;;5058504;28;20238;-87
2021/01/14 00:16:57;;;;;;;6.28;1.15;;;6.10;99.90;;;;;;5058477;28;20657;-89
2021/01/14 00:19:24;;;;;;;5.22;1.00;;;6.10;99.90;;;;;;5061794;28;20194;-88
2021/01/14 00:21:50;;;;;;;3.25;1.20;;;6.20;99.90;;;;;;5061291;28;20222;-89
2021/01/14 00:24:18;;;;;;;2.67;0.90;;;6.20;99.90;;;;;;5066778;28;20325;-86
2021/01/14 00:26:45;;;;;;;2.50;0.90;;;6.00;99.90;;;;;;5077366;28;20206;-88
2021/01/14 00:29:12;;;;;;;2.70;1.02;;;5.90;99.90;;;;;;5078747;28;20243;-89
2021/01/14 00:31:39;;;;;;;2.70;1.20;;;6.10;99.90;;;;;;5080922;28;20198;-88
2021/01/14 00:34:05;;;;;;;2.90;1.13;;;5.90;99.90;;;;;;5083492;28;20231;-88
2021/01/14 00:36:33;;;;;;;2.40;0.90;;;6.30;99.90;;;;;;5082874;28;20210;-87
2021/01/14 00:39:00;;;;;;;2.70;1.00;;;6.00;99.90;;;;;;5082721;28;20225;-89
2021/01/14 00:41:28;;;;;;;3.15;1.60;;;6.00;99.90;;;;;;5082403;28;20290;-87
2021/01/14 00:43:55;;;;;;;3.67;1.17;;;5.80;99.90;;;;;;5082433;28;20230;-88
2021/01/14 00:46:22;;;;;;;2.90;1.40;;;5.90;99.90;;;;;;5067325;28;20207;-88
2021/01/14 00:48:49;;;;;;;2.75;1.15;;;5.80;99.90;;;;;;5070270;28;20229;-88
2021/01/14 00:51:16;;;;;;;2.60;1.10;;;5.80;99.90;;;;;;5068113;28;20198;-88
2021/01/14 00:53:42;;;;;;;2.50;1.20;;;5.70;99.90;;;;;;5062839;28;20221;-85
2021/01/14 00:56:09;;;;;;;3.95;2.28;;;5.90;99.90;;;;;;5062589;28;20199;-87
2021/01/14 00:58:37;;;;;;;3.20;1.40;;;5.80;99.90;;;;;;5058669;28;20273;-88
2021/01/14 01:01:04;;;;;;;3.63;1.65;;;6.10;99.90;;;;;;5058170;28;20637;-89
2021/01/14 01:03:30;;;;;;;3.13;1.35;;;5.90;99.90;;;;;;5058795;28;20218;-90
2021/01/14 01:05:57;;;;;;;3.45;1.48;;;5.80;99.90;;;;;;5067288;28;20230;-85
2021/01/14 01:08:23;;;;;;;2.85;1.27;;;5.70;99.90;;;;;;5069861;28;20207;-87
2021/01/14 01:10:50;;;;;;;7.45;2.10;;;5.80;99.90;;;;;;5068766;28;20568;-88
2021/01/14 01:13:16;;;;;;;2.88;1.40;;;5.50;99.90;;;;;;5063076;28;20247;-89
2021/01/14 01:15:44;;;;;;;4.07;2.67;;;5.50;99.90;;;;;;5060700;28;20227;-87
2021/01/14 01:18:10;;;;;;;3.60;1.90;;;5.90;99.90;;;;;;5061132;28;20210;-88
2021/01/14 01:20:37;;;;;;;3.05;1.73;;;6.00;99.90;;;;;;5059478;28;20214;-86
2021/01/14 01:23:04;;;;;;;3.92;2.08;;;5.80;99.90;;;;;;5060962;28;20206;-90
2021/01/14 01:25:30;;;;;;;4.43;2.30;;;5.70;99.90;;;;;;5060146;28;20310;-89
2021/01/14 01:27:56;;;;;;;3.83;2.10;;;6.10;99.90;;;;;;5062301;28;20210;-88
2021/01/14 01:30:23;;;;;;;4.47;2.85;;;6.00;99.90;;;;;;5062470;28;20226;-90
2021/01/14 01:32:51;;;;;;;3.88;2.50;;;6.00;99.90;;;;;;5071752;28;20194;-88
2021/01/14 01:35:17;;;;;;;4.70;2.60;;;6.10;99.90;;;;;;5075341;28;20226;-86
2021/01/14 01:37:44;;;;;;;5.35;3.20;;;6.20;99.90;;;;;;5063759;28;20210;-88
2021/01/14 01:40:14;;;;;;;5.18;2.33;;;6.20;99.90;;;;;;5060918;28;20340;-89
2021/01/14 01:42:40;;;;;;;3.60;2.00;;;5.90;99.90;;;;;;5059600;28;20637;-88
2021/01/14 01:45:08;;;;;;;4.47;2.42;;;5.90;99.90;;;;;;5059366;28;20230;-89
2021/01/14 01:47:36;;;;;;;6.10;2.53;;;5.80;99.90;;;;;;5058629;28;20234;-88
2021/01/14 01:50:06;;;;;;;4.20;2.90;;;5.70;99.90;;;;;;5074225;28;20233;-88
2021/01/14 01:52:34;;;;;;;4.07;2.70;;;5.60;99.90;;;;;;5063712;28;20738;-89
2021/01/14 01:55:03;;;;;;;4.88;2.60;;;5.90;99.90;;;;;;5064169;28;20620;-87
2021/01/14 01:57:30;;;;;;;4.20;2.67;;;6.00;99.90;;;;;;5083456;28;20228;-86
2021/01/14 01:59:56;;;;;;;4.22;2.42;;;5.80;99.90;;;;;;5079871;28;20190;-85
2021/01/14 02:02:25;;;;;;;5.90;3.40;;;5.70;99.90;;;;;;5078856;28;20190;-85
2021/01/14 02:04:53;;;;;;;6.18;3.08;;;5.90;99.90;;;;;;5077817;28;20218;-86
2021/01/14 02:07:42;;;;;;;6.57;3.20;;;5.90;99.90;;;;;;5078252;28;20290;-84
2021/01/14 02:10:14;;;;;;;4.65;2.78;;;6.20;99.90;;;;;;5066408;28;20247;-85
2021/01/14 02:12:50;;;;;;;4.82;3.25;;;6.20;99.90;;;;;;5073875;28;20195;-87
2021/01/14 02:15:17;;;;;;;4.07;2.70;;;6.00;99.90;;;;;;5077249;28;20278;-85
2021/01/14 02:17:44;;;;;;;4.43;2.50;;;6.00;99.90;;;;;;5071595;28;20255;-87
2021/01/14 02:20:14;;;;;;;5.88;2.95;;;5.90;99.90;;;;;;5052040;28;20214;-88
2021/01/14 02:22:45;;;;;;;4.10;2.40;;;5.70;99.90;;;;;;5041949;28;20203;-88
2021/01/14 02:25:17;;;;;;;3.78;2.03;;;5.90;99.90;;;;;;5056268;28;20232;-88
2021/01/14 02:27:47;;;;;;;4.20;2.38;;;6.00;99.90;;;;;;5056955;28;20203;-88
2021/01/14 02:30:14;;;;;;;4.47;2.13;;;5.80;99.90;;;;;;5055523;28;20222;-88
2021/01/14 02:32:43;;;;;;;4.90;2.40;;;5.60;99.90;;;;;;5056163;28;20419;-88
2021/01/14 02:35:11;;;;;;;5.57;2.17;;;5.80;99.90;;;;;;5056440;28;20221;-87
2021/01/14 02:37:37;;;;;;;4.40;2.30;;;5.90;99.90;;;;;;5055457;28;20215;-88
2021/01/14 02:40:05;;;;;;;3.22;1.90;;;5.70;99.90;;;;;;5056266;28;20277;-88
2021/01/14 02:42:31;;;;;;;5.32;2.25;;;5.70;99.90;;;;;;5055795;28;20236;-87
2021/01/14 02:44:59;;;;;;;3.58;1.73;;;5.70;99.90;;;;;;5056107;28;20219;-89
2021/01/14 02:47:28;;;;;;;5.43;2.47;;;5.90;99.90;;;;;;5056350;28;20211;-89
2021/01/14 02:49:58;;;;;;;4.15;2.55;;;5.70;99.90;;;;;;5075336;28;20245;-87
2021/01/14 02:52:27;;;;;;;4.57;2.83;;;5.70;99.90;;;;;;5056522;28;20202;-88
2021/01/14 02:54:55;;;;;;;4.60;2.30;;;5.70;99.90;;;;;;5056571;28;20214;-87
2021/01/14 02:57:25;;;;;;;3.47;2.28;;;5.80;99.90;;;;;;5058025;28;20207;-88
2021/01/14 02:59:53;;;;;;;9.65;2.97;;;5.80;99.90;;;;;;5068250;28;20261;-88
2021/01/14 03:02:21;;;;;;;4.10;1.80;;;5.70;99.90;;;;;;5085729;28;20202;-88
2021/01/14 03:04:47;;;;;;;4.38;2.40;;;5.80;99.90;;;;;;5086850;28;20233;-88
2021/01/14 03:07:15;;;;;;;4.30;2.33;;;5.40;99.90;;;;;;5064878;28;20229;-88
2021/01/14 03:09:42;;;;;;;5.70;2.30;;;5.40;99.90;;;;;;5066547;28;20222;-88
2021/01/14 03:12:09;;;;;;;4.95;2.15;;;5.40;99.90;;;;;;5062870;28;20210;-88
2021/01/14 03:14:35;;;;;;;5.50;2.30;;;5.70;99.90;;;;;;5060335;28;20229;-88
2021/01/14 03:17:02;;;;;;;4.00;2.30;;;5.60;99.90;;;;;;5060401;28;20190;-88
2021/01/14 03:19:29;;;;;;;5.07;2.95;;;5.60;99.90;;;;;;5061189;28;20209;-87
2021/01/14 03:21:59;;;;;;;4.35;2.50;;;5.80;99.90;;;;;;5062350;28;20221;-87
2021/01/14 03:24:26;;;;;;;4.03;2.40;;;5.60;99.90;;;;;;5043381;28;20255;-86
2021/01/14 03:26:53;;;;;;;6.22;2.78;;;5.70;99.90;;;;;;5043052;28;20211;-87
2021/01/14 03:29:21;;;;;;;3.97;2.40;;;5.60;99.90;;;;;;5059942;28;20230;-90
2021/01/14 03:31:47;;;;;;;4.93;2.50;;;5.60;99.90;;;;;;5062889;28;20211;-88
2021/01/14 03:34:14;;;;;;;7.43;2.80;;;5.40;99.90;;;;;;5055544;28;20295;-88
2021/01/14 03:36:56;;;;;;;4.15;2.53;;;5.50;99.90;;;;;;5072160;22;20190;-85
2021/01/14 03:39:24;;;;;;;4.53;2.60;;;5.60;99.90;;;;;;5055046;28;20198;-85
2021/01/14 03:41:51;;;;;;;4.43;2.60;;;5.50;99.90;;;;;;5059724;28;20286;-84
2021/01/14 03:44:18;;;;;;;5.47;2.72;;;5.60;99.90;;;;;;5060794;28;20194;-84
2021/01/14 03:46:48;;;;;;;6.40;2.78;;;5.70;99.90;;;;;;5060391;28;20218;-84
2021/01/14 03:49:15;;;;;;;8.57;2.88;;;5.60;99.90;;;;;;5054731;28;20230;-84
2021/01/14 03:51:44;;;;;;;5.68;2.75;;;5.70;99.90;;;;;;5059283;28;20376;-84
2021/01/14 03:54:11;;;;;;;6.47;2.85;;;5.50;99.90;;;;;;5053025;28;20199;-84
2021/01/14 03:56:38;;;;;;;5.85;3.60;;;5.60;99.90;;;;;;5053980;28;20253;-84
2021/01/14 03:59:06;;;;;;;5.50;3.03;;;5.40;99.90;;;;;;5053577;28;20261;-84
2021/01/14 04:01:33;;;;;;;4.90;2.90;;;5.40;99.90;;;;;;5053136;28;20203;-84
2021/01/14 04:04:00;;;;;;;5.05;2.45;;;5.30;99.90;;;;;;5040173;28;20638;-84
2021/01/14 04:06:33;;;;;;;5.63;2.70;;;5.30;99.90;;;;;;5041402;28;20187;-84
2021/01/14 04:09:02;;;;;;;4.63;2.90;;;5.40;99.90;;;;;;5052782;28;20226;-84
2021/01/14 04:11:29;;;;;;;8.52;3.88;;;5.40;99.90;;;;;;5052167;28;20214;-84
2021/01/14 04:13:56;;;;;;;4.90;2.88;;;5.20;99.90;;;;;;5051974;28;20708;-84
2021/01/14 04:16:22;;;;;;;6.07;3.35;;;5.10;99.90;;;;;;5053414;28;20770;-84
2021/01/14 04:18:49;;;;;;;6.07;3.25;;;5.10;99.90;;;;;;5053046;28;20206;-84
2021/01/14 04:21:16;;;;;;;5.13;3.10;;;5.00;99.90;;;;;;5042769;28;20214;-84
2021/01/14 04:23:44;;;;;;;5.82;2.90;;;5.10;99.90;;;;;;5053060;28;20227;-84
2021/01/14 04:26:12;;;;;;;4.93;3.05;;;5.10;99.90;;;;;;5053857;28;20214;-84
2021/01/14 04:28:39;;;;;;;6.65;3.60;;;5.10;99.90;;;;;;5053014;28;20218;-84
2021/01/14 04:31:06;;;;;;;5.32;3.13;;;5.20;99.90;;;;;;5053289;28;20210;-84
2021/01/14 04:33:33;;;;;;;6.70;3.25;;;5.10;99.90;;;;;;5053763;28;20636;-84
2021/01/14 04:36:01;;;;;;;11.32;3.50;;;4.90;99.90;;;;;;5053909;28;20214;-84
2021/01/14 04:38:29;;;;;;;6.72;3.25;;;5.00;99.90;;;;;;5053167;28;20239;-83
2021/01/14 04:40:57;;;;;;;6.35;3.58;;;5.10;99.90;;;;;;5054061;28;20214;-84
2021/01/14 04:43:25;;;;;;;7.68;4.13;;;4.90;99.90;;;;;;5057771;28;20239;-84
2021/01/14 04:46:03;;;;;;;6.30;3.35;;;5.00;99.90;;;;;;5054997;28;20293;-83
2021/01/14 04:48:30;;;;;;;5.38;2.95;;;5.00;99.90;;;;;;5052523;28;20276;-83
2021/01/14 04:51:05;;;;;;;6.05;3.60;;;4.80;99.90;;;;;;5055058;28;20265;-83
2021/01/14 04:53:35;;;;;;;5.68;4.10;;;4.80;99.90;;;;;;5064031;28;20186;-83
2021/01/14 04:56:04;;;;;;;4.90;3.33;;;4.70;99.90;;;;;;5072043;28;20422;-83
2021/01/14 04:58:32;;;;;;;5.63;3.75;;;4.70;99.90;;;;;;5068496;28;20210;-84
2021/01/14 05:01:03;;;;;;;6.53;3.85;;;4.70;99.90;;;;;;5048181;28;20207;-83
2021/01/14 05:03:32;;;;;;;6.00;3.65;;;4.70;99.90;;;;;;5053838;28;20222;-84
2021/01/14 05:05:59;;;;;;;6.95;3.50;;;4.70;99.90;;;;;;5068863;28;20211;-83
2021/01/14 05:08:30;;;;;;;6.00;3.70;;;4.80;99.90;;;;;;5069332;28;20272;-83
2021/01/14 05:10:57;;;;;;;5.68;3.25;;;4.70;99.90;;;;;;5068642;28;20286;-83
2021/01/14 05:13:24;;;;;;;10.30;4.40;;;4.80;99.90;;;;;;5071032;28;20210;-83
2021/01/14 05:15:52;;;;;;;6.85;4.07;;;4.80;99.90;;;;;;5068260;28;20229;-83
2021/01/14 05:18:18;;;;;;;7.93;4.28;;;4.70;99.90;;;;;;5073447;28;20309;-84
2021/01/14 05:20:45;;;;;;;9.38;4.80;;;4.70;99.90;;;;;;5059663;28;20205;-83
2021/01/14 05:23:13;;;;;;;5.30;3.45;;;4.70;99.90;;;;;;5053617;28;20191;-84
2021/01/14 05:25:51;;;;;;;6.45;4.30;;;4.60;99.90;;;;;;5069277;28;20260;-83
2021/01/14 05:28:20;;;;;;;9.55;3.92;;;4.50;99.90;;;;;;5068879;28;20218;-83
2021/01/14 05:30:46;;;;;;;5.82;3.75;;;4.70;99.90;;;;;;5071537;28;20219;-82
2021/01/14 05:33:16;;;;;;;6.63;4.13;;;4.60;99.90;;;;;;5073029;28;20203;-82
2021/01/14 05:35:50;;;;;;;6.45;3.85;;;4.60;99.90;;;;;;5072999;28;20194;-82
2021/01/14 05:38:27;;;;;;;8.45;4.25;;;4.70;99.90;;;;;;5073018;28;20214;-82
2021/01/14 05:43:56;;;;;;;5.10;3.50;;;4.70;99.90;;;;;;5029475;28;20182;-82
2021/01/14 05:46:24;;;;;;;6.82;4.40;;;4.40;99.90;;;;;;5042153;28;20239;-83
2021/01/14 05:48:53;;;;;;;6.40;4.05;;;4.40;99.90;;;;;;5047556;28;20206;-83
2021/01/14 05:51:22;;;;;;;6.65;4.32;;;4.60;99.90;;;;;;5070787;28;20206;-82
2021/01/14 05:54:02;;;;;;;5.82;4.38;;;4.40;99.90;;;;;;5072401;28;20257;-83
2021/01/14 05:56:37;;;;;;;6.60;4.53;;;4.70;99.90;;;;;;5055989;28;20210;-83
2021/01/14 05:59:07;;;;;;;8.48;4.57;;;4.70;99.90;;;;;;5074478;28;20266;-84
2021/01/14 06:01:35;;;;;;;8.35;4.68;;;4.50;99.90;;;;;;5064607;28;20203;-83
2021/01/14 06:04:19;;;;;;;7.65;4.28;;;4.80;99.90;;;;;;5054761;28;20214;-83
2021/01/14 06:06:47;;;;;;;6.30;4.30;;;4.90;99.90;;;;;;5053721;28;20245;-83
2021/01/14 06:09:15;;;;;;;7.82;4.05;;;4.80;99.90;;;;;;5054012;28;20271;-83
2021/01/14 06:11:42;;;;;;;7.30;3.97;;;4.90;99.90;;;;;;5058936;28;20209;-83
2021/01/14 06:14:27;;;;;;;8.45;4.35;;;4.80;99.90;;;;;;5078494;28;20583;-83
2021/01/14 06:16:53;;;;;;;6.00;4.40;;;4.90;99.90;;;;;;5063415;28;20226;-83
2021/01/14 06:19:25;;;;;;;5.57;3.28;;;4.80;99.90;;;;;;5067584;28;20198;-83
2021/01/14 06:21:55;;;;;;;5.18;3.50;;;5.00;99.90;;;;;;5068571;28;20234;-83
2021/01/14 06:24:25;;;;;;;6.55;3.40;;;5.10;99.90;;;;;;5068745;28;20796;-86
2021/01/14 06:26:53;;;;;;;6.70;3.63;;;5.00;99.90;;;;;;5068661;28;20234;-82
2021/01/14 06:29:22;;;;;;;6.53;4.30;;;4.80;99.90;;;;;;5063029;28;20226;-84
2021/01/14 06:31:48;;;;;;;6.85;4.20;;;4.90;99.90;;;;;;5062485;28;20264;-83
2021/01/14 06:34:16;;;;;;;8.20;4.32;;;4.90;99.90;;;;;;5058496;28;20707;-83
2021/01/14 06:36:47;;;;;;;7.40;3.85;;;4.80;99.90;;;;;;5057971;28;20219;-83
2021/01/14 06:39:16;;;;;;;6.45;3.38;;;4.80;99.90;;;;;;5059671;28;20746;-83
2021/01/14 06:41:44;;;;;;;8.90;4.13;;;5.00;99.90;;;;;;5058560;28;20237;-83
2021/01/14 06:44:12;;;;;;;9.73;3.83;;;4.80;99.90;;;;;;5081054;28;20206;-83
2021/01/14 06:46:39;;;;;;;7.28;4.65;;;5.10;99.90;;;;;;5066148;28;20371;-83
2021/01/14 06:49:16;;;;;;;6.80;4.40;;;4.70;99.90;;;;;;5062077;28;20222;-82
2021/01/14 06:51:54;;;;;;;7.53;4.15;;;5.00;99.90;;;;;;5059522;28;20237;-83
2021/01/14 06:54:22;;;;;;;7.93;4.63;;;5.00;99.90;;;;;;5059480;28;20351;-83
2021/01/14 06:56:56;;;;;;;9.98;4.32;;;5.10;99.90;;;;;;5061861;28;20723;-83
2021/01/14 06:59:24;;;;;;;10.20;4.15;;;4.90;99.90;;;;;;5060186;28;20669;-83
2021/01/14 07:02:43;;;;;;;6.90;4.50;;;4.90;99.90;;;;;;5073394;28;20206;-83
2021/01/14 07:05:16;;;;;;;7.57;4.85;;;5.00;99.90;;;;;;5062647;28;20735;-83
2021/01/14 07:07:47;;;;;;;9.50;4.75;;;4.80;99.90;;;;;;5061236;28;20404;-83
2021/01/14 07:10:15;;;;;;;8.20;4.53;;;4.80;99.90;;;;;;5064220;28;20252;-83
2021/01/14 07:12:43;;;;;;;8.35;5.35;;;4.80;99.90;;;;;;5071313;28;20233;-83
2021/01/14 07:15:11;;;;;;;7.15;4.85;;;4.70;99.90;;;;;;5061876;28;20271;-81
2021/01/14 07:17:40;;;;;;;6.93;4.63;;;4.80;99.90;;;;;;5060435;28;20254;-83
2021/01/14 07:20:09;;;;;;;6.80;4.82;;;4.60;99.90;;;;;;5060213;28;20206;-83
2021/01/14 07:22:44;;;;;;;9.88;6.00;;;4.70;99.90;;;;;;5061276;28;20786;-83
2021/01/14 07:25:19;;;;;;;6.65;4.63;;;5.00;99.90;;;;;;5073546;28;20202;-83
2021/01/14 07:27:48;;;;;;;8.98;5.82;;;4.80;99.90;;;;;;5077071;28;20247;-84
2021/01/14 07:30:18;;;;;;;7.63;5.53;;;4.60;99.90;;;;;;5057782;28;20229;-84
2021/01/14 07:32:58;;;;;;;9.88;6.47;;;4.60;99.90;;;;;;5061274;28;20294;-84
2021/01/14 07:35:40;;;;;;;8.45;5.60;;;4.50;99.90;;;;;;5062597;28;20217;-81
2021/01/14 07:38:07;;;;;;;9.85;5.35;;;5.10;99.90;;;;;;5061707;28;20230;-84
2021/01/14 07:40:37;;;;;;;9.10;5.35;;;4.80;99.90;;;;;;5066906;28;20204;-83
2021/01/14 07:43:05;;;;;;;10.05;5.75;;;4.90;99.90;;;;;;5080183;28;20205;-83
2021/01/14 07:45:32;;;;;;;7.03;5.43;;;4.90;99.90;;;;;;5053983;28;20237;-83
2021/01/14 07:48:21;;;;;;;7.60;5.80;;;4.70;99.90;;;;;;5036140;28;20249;-82
2021/01/14 07:50:52;;;;;;;7.03;5.30;;;4.70;99.90;;;;;;5034993;28;20231;-83
2021/01/14 07:53:20;;;;;;;10.85;5.45;;;4.50;99.90;;;;;;5043927;28;20203;-83
2021/01/14 07:55:47;;;;;;;8.63;6.10;;;4.70;99.90;;;;;;5038826;28;20207;-82
2021/01/14 07:58:22;;;;;;;9.25;6.40;;;4.80;99.90;;;;;;5060364;28;20632;-83
2021/01/14 08:01:06;;;;;;;8.48;5.60;;;4.90;99.90;;;;;;5040367;28;20206;-82
2021/01/14 08:03:34;;;;;;;8.18;6.03;;;4.90;99.90;;;;;;5059380;28;20190;-82
2021/01/14 08:06:17;;;;;;;7.03;4.75;;;4.90;99.90;;;;;;5059198;28;20215;-82
2021/01/14 08:09:01;;;;;;;6.85;4.90;;;4.90;99.90;;;;;;5059060;28;20712;-82
2021/01/14 08:11:30;;;;;;;8.20;5.28;;;5.10;99.90;;;;;;5059245;28;20238;-84
2021/01/14 08:14:09;;;;;;;7.30;4.60;;;4.60;99.90;;;;;;5057811;28;20203;-84
2021/01/14 08:16:38;;;;;;;10.32;5.70;;;4.80;99.90;;;;;;5060507;28;20277;-83
2021/01/14 08:19:32;;;;;;;10.95;6.05;;;4.60;99.90;;;;;;5065684;28;20228;-83
2021/01/14 08:22:07;;;;;;;7.40;4.65;;;4.60;99.90;;;;;;5056525;28;20195;-79
2021/01/14 08:24:38;;;;;;;10.30;5.40;;;4.80;99.90;;;;;;5054790;28;20297;-79
2021/01/14 08:27:08;;;;;;;6.90;5.05;;;5.00;99.90;;;;;;5058584;28;20223;-79
2021/01/14 08:29:40;;;;;;;10.60;5.63;;;4.90;99.90;;;;;;5067353;28;20273;-79
2021/01/14 08:32:34;;;;;;;11.35;5.38;;;4.90;99.90;;;;;;5063740;28;20209;-84
2021/01/14 08:35:03;;;;;;;10.85;5.75;;;4.80;99.90;;;;;;5058134;28;20206;-85
2021/01/14 08:37:32;;;;;;;10.70;5.60;;;4.90;99.90;;;;;;5058564;28;20332;-86
2021/01/14 08:40:00;;;;;;;8.60;5.20;;;4.70;99.90;;;;;;5057650;28;20310;-87
2021/01/14 08:42:32;;;;;;;9.40;6.18;;;4.70;99.90;;;;;;5058806;28;20202;-86
2021/01/14 08:45:06;;;;;;;10.23;5.63;;;4.60;99.90;;;;;;5059863;28;20206;-83
2021/01/14 08:48:07;;;;;;;8.68;5.75;;;4.50;99.90;;;;;;5049761;28;20269;-86
2021/01/14 08:50:52;;;;;;;12.50;6.10;;;4.50;99.90;;;;;;4991997;28;20276;-85
2021/01/14 08:53:27;;;;;;;7.70;5.13;;;4.70;99.90;;;;;;4988118;28;20560;-86
2021/01/14 08:55:56;;;;;;;10.75;5.40;;;4.80;99.90;;;;;;5035465;28;20247;-85
2021/01/14 08:58:34;;;;;;;9.80;6.10;;;4.60;99.90;;;;;;5064212;28;20284;-86
2021/01/14 09:01:01;;;;;;;8.85;5.88;;;4.80;99.90;;;;;;5076583;28;20225;-86
2021/01/14 09:03:27;;;;;;;11.05;5.50;;;4.70;99.90;;;;;;5089807;28;20197;-85
2021/01/14 09:05:54;;;;;;;6.53;3.90;;;4.80;99.90;;;;;;5093085;28;20285;-85
2021/01/14 09:08:21;;;;;;;8.23;5.15;;;5.00;99.90;;;;;;5071404;28;20227;-84
2021/01/14 09:10:50;;;;;;;6.97;4.40;;;4.80;99.90;;;;;;5064993;28;20226;-78
2021/01/14 09:13:19;;;;;;;11.93;5.40;;;4.50;99.90;;;;;;5065522;28;20206;-78
2021/01/14 09:15:47;;;;;;;8.27;4.53;;;4.80;99.90;;;;;;5060368;28;20225;-79
2021/01/14 09:18:15;;;;;;;8.88;5.38;;;4.90;99.90;;;;;;5055642;28;20222;-79
2021/01/14 09:20:41;;;;;;;8.25;5.35;;;5.00;99.90;;;;;;5052364;28;20289;-76
2021/01/14 09:23:22;;;;;;;9.32;5.57;;;4.70;99.90;;;;;;5051540;28;20244;-78
2021/01/14 09:25:50;;;;;;;9.40;4.80;;;4.80;99.90;;;;;;5052052;28;20210;-79
2021/01/14 09:28:20;;;;;;;9.70;5.90;;;4.90;99.90;;;;;;5056918;28;20226;-84
2021/01/14 09:30:54;;;;;;;9.55;5.50;;;4.90;99.90;;;;;;5061858;28;20234;-82
2021/01/14 09:33:22;;;;;;;31.35;7.20;;;4.90;99.90;;;;;;5070017;28;20201;-82
2021/01/14 09:35:58;;;;;;;13.52;8.02;;;4.80;99.90;;;;;;5074740;28;20226;-82
2021/01/14 09:38:26;;;;;;;11.30;5.93;;;4.60;99.90;;;;;;5047335;28;20239;-83
2021/01/14 09:40:53;;;;;;;7.35;4.90;;;4.80;99.90;;;;;;5049017;28;20227;-82
2021/01/14 09:43:23;;;;;;;9.60;5.55;;;4.80;99.90;;;;;;5052144;28;20226;-82
2021/01/14 09:45:51;;;;;;;11.98;5.70;;;5.20;99.90;;;;;;5058563;28;20210;-82
2021/01/14 09:48:21;;;;;;;8.68;4.93;;;5.20;99.90;;;;;;5056570;28;20214;-85
2021/01/14 09:50:48;;;;;;;8.48;4.85;;;5.50;99.90;;;;;;5072000;28;20201;-83
2021/01/14 09:53:14;;;;;;;9.40;5.13;;;5.30;99.90;;;;;;5065617;28;20229;-83
2021/01/14 09:55:41;;;;;;;7.32;4.40;;;5.20;99.90;;;;;;5059876;28;20256;-81
2021/01/14 09:58:18;;;;;;;7.05;5.03;;;5.10;99.90;;;;;;5063435;28;20240;-85
2021/01/14 10:00:47;;;;;;;7.90;4.72;;;4.80;99.90;;;;;;5061907;28;20256;-88
2021/01/14 10:03:18;;;;;;;10.30;5.68;;;5.00;99.90;;;;;;5065273;28;20259;-82
2021/01/14 10:05:48;;;;;;;8.25;4.70;;;5.00;99.90;;;;;;5081695;28;20206;-85
2021/01/14 10:08:18;;;;;;;6.50;4.00;;;4.80;99.90;;;;;;5078250;28;20280;-84
2021/01/14 10:10:46;;;;;;;6.88;4.55;;;4.70;99.90;;;;;;5077133;28;20217;-84
2021/01/14 10:13:14;;;;;;;10.18;5.00;;;4.80;99.90;;;;;;5081519;28;20206;-83
2021/01/14 10:15:41;;;;;;;7.38;4.80;;;4.90;99.90;;;;;;5072521;28;20203;-85
2021/01/14 10:18:26;;;;;;;6.40;4.00;;;5.00;99.90;;;;;;5077008;28;20264;-86
2021/01/14 10:21:00;;;;;;;7.75;4.35;;;5.10;99.90;;;;;;5048375;28;20210;-83
2021/01/14 10:23:27;;;;;;;7.13;4.55;;;5.10;99.90;;;;;;5046404;28;20302;-84
2021/01/14 10:25:55;;;;;;;6.43;3.33;;;4.90;99.90;;;;;;5041948;28;20235;-83
2021/01/14 10:28:22;;;;;;;8.10;4.25;;;5.10;99.90;;;;;;5061316;28;20226;-84
2021/01/14 10:30:49;;;;;;;5.53;3.88;;;4.90;99.90;;;;;;5060449;28;20226;-84
2021/01/14 10:33:16;;;;;;;8.07;4.30;;;5.10;99.90;;;;;;5063927;28;20209;-83
2021/01/14 10:35:43;;;;;;;8.13;3.72;;;4.80;99.90;;;;;;5080531;28;20205;-85
2021/01/14 10:38:12;;;;;;;9.00;4.15;;;5.00;99.90;;;;;;5083426;28;20260;-84
2021/01/14 10:40:40;;;;;;;10.18;4.40;;;5.10;99.90;;;;;;5084393;28;20212;-84
2021/01/14 10:43:08;;;;;;;7.35;4.13;;;5.00;99.90;;;;;;5071022;28;20243;-85
2021/01/14 10:45:36;;;;;;;7.65;4.28;;;4.80;99.90;;;;;;5069659;28;20249;-83
2021/01/14 10:48:11;;;;;;;6.65;4.55;;;4.80;99.90;;;;;;5071237;28;20214;-84
2021/01/14 10:50:47;;;;;;;5.88;3.63;;;5.00;99.90;;;;;;5072024;28;20225;-85
2021/01/14 10:53:24;;;;;;;8.45;4.63;;;5.20;99.90;;;;;;5088988;28;20209;-84
2021/01/14 10:56:04;;;;;;;10.73;6.20;;;5.10;99.90;;;;;;5090846;28;20563;-83
2021/01/14 10:58:30;;;;;;;7.00;4.10;;;4.90;99.90;;;;;;5090414;28;20226;-83
2021/01/14 11:00:57;;;;;;;8.55;4.50;;;4.70;99.90;;;;;;5090102;28;20216;-83
2021/01/14 11:03:26;;;;;;;10.13;4.85;;;4.90;99.90;;;;;;5090736;28;20206;-83
2021/01/14 11:05:57;;;;;;;7.38;4.28;;;4.60;99.90;;;;;;5080900;28;20210;-84
2021/01/14 11:08:27;;;;;;;8.50;5.00;;;4.50;99.90;;;;;;5080335;28;20226;-83
2021/01/14 11:11:05;;;;;;;9.20;5.13;;;4.60;99.90;;;;;;5073856;28;20226;-84
2021/01/14 11:13:42;;;;;;;8.50;4.40;;;4.80;99.90;;;;;;5053267;28;20204;-84
2021/01/14 11:16:10;;;;;;;9.85;5.03;;;4.70;99.90;;;;;;5077772;28;20297;-83
2021/01/14 11:18:38;;;;;;;9.10;5.13;;;4.60;99.90;;;;;;5063223;28;20224;-84
2021/01/14 11:21:06;;;;;;;7.53;4.70;;;4.70;99.90;;;;;;5061352;28;20199;-83
2021/01/14 11:23:33;;;;;;;11.68;6.15;;;4.70;99.90;;;;;;5069885;28;20197;-83
2021/01/14 11:26:02;;;;;;;15.90;6.50;;;5.00;99.90;;;;;;5061881;28;20206;-78
2021/01/14 11:28:29;;;;;;;10.50;5.63;;;4.80;99.90;;;;;;5053781;28;20254;-78
2021/01/14 11:30:55;;;;;;;9.88;5.25;;;4.80;99.90;;;;;;5049332;28;20222;-80
2021/01/14 11:33:22;;;;;;;9.80;5.32;;;5.00;99.90;;;;;;5054095;28;20233;-82
2021/01/14 11:35:48;;;;;;;8.98;5.25;;;5.00;99.90;;;;;;5060968;28;20229;-81
2021/01/14 11:38:18;;;;;;;10.10;5.82;;;5.30;99.90;;;;;;5059006;28;20790;-82
2021/01/14 11:40:45;;;;;;;9.30;5.15;;;5.20;99.90;;;;;;5067105;28;20209;-81
2021/01/14 11:43:12;;;;;;;8.63;6.00;;;5.00;99.90;;;;;;5058187;28;20207;-82
2021/01/14 11:45:39;;;;;;;6.70;3.13;;;4.90;99.90;;;;;;5056940;28;20202;-81
2021/01/14 11:48:07;;;;;;;9.07;5.25;;;4.80;99.90;;;;;;5056123;28;20356;-82
2021/01/14 11:50:34;;;;;;;11.27;5.25;;;4.40;99.90;;;;;;5058284;28;20218;-82
2021/01/14 11:53:01;;;;;;;9.55;5.50;;;4.70;99.90;;;;;;5062928;28;20203;-82
2021/01/14 11:55:29;;;;;;;10.15;5.00;;;4.70;99.90;;;;;;5059531;28;20202;-81
2021/01/14 11:57:55;;;;;;;9.02;5.65;;;4.80;99.90;;;;;;5061115;28;20317;-81
2021/01/14 12:00:22;;;;;;;11.23;4.78;;;4.80;99.90;;;;;;5059629;28;20201;-81
2021/01/14 12:02:49;;;;;;;9.20;5.75;;;4.80;99.90;;;;;;5065721;28;20210;-80
2021/01/14 12:05:16;;;;;;;8.82;4.90;;;4.90;99.90;;;;;;5065252;28;20237;-80
2021/01/14 12:07:42;;;;;;;5.00;2.35;;;4.90;99.90;;;;;;5061575;28;20227;-81
2021/01/14 12:10:10;;;;;;;9.73;4.35;;;4.60;99.90;;;;;;5059380;28;20218;-81
2021/01/14 12:12:37;;;;;;;4.55;2.65;;;4.70;99.90;;;;;;5055880;28;20974;-81
2021/01/14 12:15:05;;;;;;;7.60;4.20;;;4.30;99.90;;;;;;5056146;28;20198;-81
2021/01/14 12:17:32;;;;;;;6.65;4.07;;;4.60;99.90;;;;;;5063313;28;20218;-81
2021/01/14 12:19:59;;;;;;;4.40;2.10;;;4.60;99.90;;;;;;5067712;28;20214;-81
2021/01/14 12:22:26;;;;;;;8.50;4.45;;;4.40;99.90;;;;;;5062081;28;20199;-83
2021/01/14 12:24:56;;;;;;;7.53;3.97;;;4.40;99.90;;;;;;5068208;28;20213;-81
2021/01/14 12:27:22;;;;;;;10.77;4.47;;;4.50;99.90;;;;;;5085188;28;20575;-80
2021/01/14 12:29:50;;;;;;;8.75;4.68;;;4.80;99.90;;;;;;5085503;28;20221;-83
2021/01/14 12:32:16;;;;;;;5.97;4.00;;;4.70;99.90;;;;;;5062562;28;20259;-84
2021/01/14 12:34:43;;;;;;;7.70;4.00;;;4.80;99.90;;;;;;5057560;28;20226;-79
2021/01/14 12:37:10;;;;;;;7.55;4.13;;;4.90;99.90;;;;;;5061213;28;20709;-81
2021/01/14 12:39:36;;;;;;;7.80;4.32;;;4.70;99.90;;;;;;5058082;28;20244;-82
2021/01/14 12:42:09;;;;;;;8.57;4.68;;;5.00;99.90;;;;;;5057291;28;20206;-84
2021/01/14 12:44:36;;;;;;;10.93;5.15;;;4.70;99.90;;;;;;5055993;28;20245;-84
2021/01/14 12:47:04;;;;;;;11.52;4.40;;;5.00;99.90;;;;;;5061423;28;20680;-83
2021/01/14 12:49:30;;;;;;;11.20;4.90;;;5.00;99.90;;;;;;5054658;28;20195;-77
2021/01/14 12:51:57;;;;;;;9.48;4.50;;;5.20;99.90;;;;;;5050928;28;20207;-77
2021/01/14 12:54:24;;;;;;;7.85;4.80;;;5.40;99.90;;;;;;5053272;28;20263;-80
2021/01/14 12:56:50;;;;;;;7.97;4.20;;;5.30;99.90;;;;;;5053859;28;20226;-80
2021/01/14 12:59:20;;;;;;;10.57;5.40;;;5.00;99.90;;;;;;5067338;28;20202;-80
2021/01/14 13:01:46;;;;;;;7.90;4.65;;;5.10;99.90;;;;;;5075155;28;20209;-79
2021/01/14 13:04:16;;;;;;;8.88;4.47;;;4.80;99.90;;;;;;5069098;28;20199;-77
2021/01/14 13:06:43;;;;;;;12.00;4.50;;;5.10;99.90;;;;;;5046762;28;20225;-83
2021/01/14 13:09:11;;;;;;;5.60;4.00;;;5.10;99.90;;;;;;5076918;28;20214;-82
2021/01/14 13:11:40;;;;;;;10.25;4.70;;;5.30;99.90;;;;;;5077536;28;20225;-82
2021/01/14 13:14:08;;;;;;;11.48;4.20;;;5.40;99.90;;;;;;5072161;28;20633;-82
2021/01/14 13:16:36;;;;;;;7.45;4.18;;;5.20;99.90;;;;;;5056294;28;20206;-83